Troon, United Kingdom
Current Conditions -  °F | °C
As of 6:50 PM on Thursday 23 Oct 2014 (Local Time) from EGPK Reporting Station
Broken Clouds Broken Clouds  
Wind Chill: 57°   Ceiling: 2400
Heat Index: 57°   Visibility: 6mi
Dew Point: 52°   Wind: 14mph
Humidity: 82%   Direction: 190°S
Pressure: 29.71"   Gusts: NA
Location:  55.54°N, 4.66°W
Report Text: EGPK 231750Z 19012KT 9999 FEW010 BKN024 14/11 Q1006
Loading
Personal Weather Stations






























Interactive Weather Map
Tropical Storm Tracking
New forecast layout! Learn more

10-Day Weather Forecast

Advertisements
Track Severe Weather on mobile